Time;durP1;ratioP1;P1;durP2;ratioP2;P2;SDS_P1;SDS_P2;PMS_P1;PMS_P2;Temp;Humidity;BMP_temperature;BMP_pressure;BME280_temperature;BME280_humidity;BME280_pressure;Samples;Min_cycle;Max_cycle;Signal;HPM_P1;HPM_P2
2023/12/23 00:01:16;;;;;;;6.57;2.03;;;11.10;99.90;;;;;;5115563;28;20177;-60
2023/12/23 00:03:41;;;;;;;7.85;2.55;;;11.10;99.90;;;;;;5115249;28;20177;-60
2023/12/23 00:06:07;;;;;;;5.18;1.88;;;11.10;99.90;;;;;;5115487;28;20275;-61
2023/12/23 00:08:33;;;;;;;6.47;2.10;;;11.10;99.90;;;;;;5115730;28;20177;-61
2023/12/23 00:10:58;;;;;;;5.95;2.08;;;11.10;99.90;;;;;;5115418;28;20620;-61
2023/12/23 00:13:24;;;;;;;6.95;1.75;;;11.10;99.90;;;;;;5115011;28;20690;-61
2023/12/23 00:15:50;;;;;;;7.68;2.25;;;11.20;99.90;;;;;;5115583;28;20252;-61
2023/12/23 00:18:15;;;;;;;6.20;2.03;;;11.10;99.90;;;;;;5115363;28;20205;-60
2023/12/23 00:20:41;;;;;;;6.05;2.20;;;11.10;99.90;;;;;;5115370;28;20622;-61
2023/12/23 00:23:07;;;;;;;6.90;2.40;;;11.10;99.90;;;;;;5115183;28;20229;-60
2023/12/23 00:25:33;;;;;;;7.70;2.25;;;11.10;99.90;;;;;;5115113;28;20170;-61
2023/12/23 00:27:58;;;;;;;8.20;2.60;;;11.20;99.90;;;;;;5115035;28;20685;-60
2023/12/23 00:30:24;;;;;;;6.82;2.38;;;11.30;99.90;;;;;;5114757;28;20201;-61
2023/12/23 00:32:51;;;;;;;8.82;2.28;;;11.10;99.90;;;;;;5115106;28;20197;-61
2023/12/23 00:35:17;;;;;;;6.35;2.70;;;11.30;99.90;;;;;;5114554;28;20181;-60
2023/12/23 00:37:43;;;;;;;7.25;2.42;;;11.30;99.90;;;;;;5113852;28;20260;-61
2023/12/23 00:40:09;;;;;;;10.60;2.42;;;11.30;99.90;;;;;;5115086;28;20181;-61
2023/12/23 00:42:36;;;;;;;7.60;2.72;;;11.20;99.90;;;;;;5115034;28;20172;-60
2023/12/23 00:45:02;;;;;;;6.53;2.58;;;11.30;99.90;;;;;;5114864;28;20254;-61
2023/12/23 00:47:27;;;;;;;7.88;2.95;;;11.20;99.90;;;;;;5114627;28;20626;-61
2023/12/23 00:49:53;;;;;;;6.65;2.47;;;11.00;99.90;;;;;;5114696;28;20185;-61
2023/12/23 00:52:19;;;;;;;11.63;3.00;;;11.10;99.90;;;;;;5114470;28;20662;-61
2023/12/23 00:54:44;;;;;;;6.95;2.55;;;11.10;99.90;;;;;;5114551;28;20653;-61
2023/12/23 00:57:10;;;;;;;7.75;2.58;;;11.00;99.90;;;;;;5114506;28;20177;-61
2023/12/23 00:59:36;;;;;;;7.40;2.20;;;11.10;99.90;;;;;;5114356;28;20217;-61
2023/12/23 01:02:01;;;;;;;9.52;2.33;;;11.20;99.90;;;;;;5114279;28;20173;-61
2023/12/23 01:04:27;;;;;;;9.52;2.80;;;11.20;99.90;;;;;;5114696;28;20178;-60
2023/12/23 01:06:53;;;;;;;7.53;2.60;;;11.10;99.90;;;;;;5114326;28;20299;-61
2023/12/23 01:09:18;;;;;;;8.27;2.45;;;11.10;99.90;;;;;;5114348;28;20206;-61
2023/12/23 01:11:44;;;;;;;10.30;2.17;;;11.10;99.90;;;;;;5113998;28;20178;-60
2023/12/23 01:14:09;;;;;;;8.80;2.20;;;11.10;99.90;;;;;;5114235;28;20173;-61
2023/12/23 01:16:35;;;;;;;7.18;2.33;;;11.10;99.90;;;;;;5113054;28;20173;-61
2023/12/23 01:19:01;;;;;;;6.32;2.15;;;11.20;99.90;;;;;;5114108;28;20209;-61
2023/12/23 01:21:26;;;;;;;6.80;2.17;;;11.10;99.90;;;;;;5113878;28;20515;-61
2023/12/23 01:23:52;;;;;;;8.55;2.25;;;11.10;99.90;;;;;;5114175;28;20169;-60
2023/12/23 01:26:17;;;;;;;5.22;1.95;;;11.00;99.90;;;;;;5114528;28;20182;-60
2023/12/23 01:28:43;;;;;;;6.43;2.35;;;10.90;99.90;;;;;;5114061;28;20583;-61
2023/12/23 01:31:09;;;;;;;4.35;1.75;;;10.90;99.90;;;;;;5114017;28;20173;-60
2023/12/23 01:33:34;;;;;;;6.53;1.80;;;10.90;99.90;;;;;;5113754;28;20204;-60
2023/12/23 01:36:02;;;;;;;3.47;2.08;;;10.90;99.90;;;;;;5113709;28;20201;-61
2023/12/23 01:38:28;;;;;;;7.13;2.00;;;10.90;99.90;;;;;;5113781;28;20296;-60
2023/12/23 01:40:53;;;;;;;5.80;1.90;;;10.80;99.90;;;;;;5113974;28;20201;-61
2023/12/23 01:43:19;;;;;;;5.90;2.05;;;10.80;99.90;;;;;;5113860;28;20256;-61
2023/12/23 01:45:45;;;;;;;6.38;2.42;;;10.70;99.90;;;;;;5113530;28;20682;-61
2023/12/23 01:48:11;;;;;;;7.47;2.75;;;10.70;99.90;;;;;;5113849;28;20260;-61
2023/12/23 01:50:38;;;;;;;6.20;2.17;;;10.60;99.90;;;;;;5117491;28;20173;-61
2023/12/23 01:53:04;;;;;;;6.75;2.75;;;10.60;99.90;;;;;;5118080;28;20622;-60
2023/12/23 01:55:31;;;;;;;7.88;2.30;;;10.60;99.90;;;;;;5118022;28;20303;-61
2023/12/23 01:57:57;;;;;;;6.88;2.25;;;10.60;99.90;;;;;;5117846;28;20177;-61
2023/12/23 02:00:23;;;;;;;7.25;2.17;;;10.60;99.90;;;;;;5117913;28;20180;-61
2023/12/23 02:02:49;;;;;;;6.55;2.50;;;10.60;99.90;;;;;;5117695;28;20173;-61
2023/12/23 02:05:15;;;;;;;6.97;2.67;;;10.50;99.90;;;;;;5117869;28;20264;-60
2023/12/23 02:07:45;;;;;;;7.15;2.53;;;10.50;99.90;;;;;;5117838;28;20177;-60
2023/12/23 02:10:11;;;;;;;8.82;2.42;;;10.50;99.90;;;;;;5117768;28;20165;-60
2023/12/23 02:12:48;;;;;;;7.97;2.47;;;10.40;99.90;;;;;;5117736;28;20606;-61
2023/12/23 02:15:15;;;;;;;9.07;2.08;;;10.50;99.90;;;;;;5117650;28;20618;-61
2023/12/23 02:17:41;;;;;;;8.02;2.28;;;10.40;99.90;;;;;;5117769;28;20173;-61
2023/12/23 02:20:08;;;;;;;5.50;2.17;;;10.40;99.90;;;;;;5117280;28;20172;-61
2023/12/23 02:22:34;;;;;;;8.82;2.22;;;10.50;99.90;;;;;;5117529;28;20264;-61
2023/12/23 02:25:00;;;;;;;8.55;2.00;;;10.50;99.90;;;;;;5117406;28;20169;-61
2023/12/23 02:27:30;;;;;;;7.60;2.08;;;10.50;99.90;;;;;;5117395;28;20191;-61
2023/12/23 02:29:58;;;;;;;4.68;1.70;;;10.40;99.90;;;;;;5117598;28;20231;-61
2023/12/23 02:32:25;;;;;;;5.72;2.00;;;10.40;99.90;;;;;;5117042;28;20176;-61
2023/12/23 02:34:52;;;;;;;7.53;2.30;;;10.40;99.90;;;;;;5117309;28;20178;-60
2023/12/23 02:37:18;;;;;;;6.55;2.08;;;10.50;99.90;;;;;;5117215;28;20205;-61
2023/12/23 02:39:43;;;;;;;7.10;2.10;;;10.50;99.90;;;;;;5117101;28;20239;-61
2023/12/23 02:42:09;;;;;;;10.05;2.58;;;10.50;99.90;;;;;;5117006;28;20196;-61
2023/12/23 02:44:35;;;;;;;11.55;2.10;;;10.50;99.90;;;;;;5117120;28;20169;-61
2023/12/23 02:47:01;;;;;;;10.52;2.75;;;10.60;99.90;;;;;;5117042;28;20260;-61
2023/12/23 02:49:26;;;;;;;7.28;2.30;;;10.50;99.90;;;;;;5116973;28;20550;-60
2023/12/23 02:51:52;;;;;;;7.47;2.10;;;10.50;99.90;;;;;;5116952;28;20192;-60
2023/12/23 02:54:17;;;;;;;6.35;2.25;;;10.50;99.90;;;;;;5117117;28;20224;-60
2023/12/23 02:56:43;;;;;;;7.00;2.38;;;10.50;99.90;;;;;;5116732;28;20642;-61
2023/12/23 02:59:09;;;;;;;7.25;2.22;;;10.50;99.90;;;;;;5116529;28;20296;-61
2023/12/23 03:01:34;;;;;;;7.15;2.33;;;10.60;99.90;;;;;;5115732;28;20252;-60
2023/12/23 03:04:00;;;;;;;8.93;2.90;;;10.50;99.90;;;;;;5116750;28;20170;-61
2023/12/23 03:06:26;;;;;;;6.90;2.17;;;10.60;99.90;;;;;;5115504;28;20173;-61
2023/12/23 03:08:51;;;;;;;7.57;1.90;;;10.60;99.90;;;;;;5116560;28;20239;-60
2023/12/23 03:11:17;;;;;;;7.97;2.40;;;10.50;99.90;;;;;;5116538;28;20530;-60
2023/12/23 03:13:43;;;;;;;6.95;2.17;;;10.50;99.90;;;;;;5116518;28;20173;-61
2023/12/23 03:16:16;;;;;;;7.65;1.95;;;10.50;99.90;;;;;;5116460;28;20226;-61
2023/12/23 03:18:42;;;;;;;8.02;2.40;;;10.60;99.90;;;;;;5116261;27;20242;-61
2023/12/23 03:21:08;;;;;;;6.22;2.15;;;10.70;99.90;;;;;;5116418;28;20172;-61
2023/12/23 03:23:33;;;;;;;8.93;2.65;;;10.70;99.90;;;;;;5116634;28;20229;-61
2023/12/23 03:26:00;;;;;;;9.98;2.60;;;10.60;99.90;;;;;;5116262;28;20259;-61
2023/12/23 03:28:26;;;;;;;9.25;2.70;;;10.60;99.90;;;;;;5116147;28;20174;-60
2023/12/23 03:30:51;;;;;;;7.55;2.08;;;10.60;99.90;;;;;;5116148;28;20177;-61
2023/12/23 03:33:17;;;;;;;7.78;2.35;;;10.60;99.90;;;;;;5116220;28;20255;-60
2023/12/23 03:35:43;;;;;;;8.98;2.53;;;10.50;99.90;;;;;;5116104;28;20253;-60
2023/12/23 03:38:09;;;;;;;8.18;2.75;;;10.60;99.90;;;;;;5115683;28;20288;-60
2023/12/23 03:40:34;;;;;;;7.30;2.22;;;10.50;99.90;;;;;;5115995;28;20174;-61
2023/12/23 03:43:00;;;;;;;5.20;2.05;;;10.60;99.90;;;;;;5115915;28;20177;-60
2023/12/23 03:45:25;;;;;;;5.80;2.13;;;10.70;99.90;;;;;;5115612;28;20250;-61
2023/12/23 03:47:51;;;;;;;6.97;2.17;;;10.60;99.90;;;;;;5115533;28;20177;-61
2023/12/23 03:50:17;;;;;;;6.80;2.22;;;10.60;99.90;;;;;;5115440;28;20264;-61
2023/12/23 03:52:43;;;;;;;6.80;2.00;;;10.50;99.90;;;;;;5115819;28;20177;-60
2023/12/23 03:55:11;;;;;;;8.38;2.42;;;10.60;99.90;;;;;;5115788;28;20610;-61
2023/12/23 03:57:36;;;;;;;7.85;2.38;;;10.50;99.90;;;;;;5115605;27;20226;-61
2023/12/23 04:00:04;;;;;;;5.82;2.15;;;10.60;99.90;;;;;;5115330;28;20205;-61
2023/12/23 04:02:30;;;;;;;7.93;2.50;;;10.60;99.90;;;;;;5115580;28;20212;-61
2023/12/23 04:04:56;;;;;;;8.55;2.05;;;10.50;99.90;;;;;;5115567;28;20169;-60
2023/12/23 04:07:21;;;;;;;8.02;2.17;;;10.60;99.90;;;;;;5115700;28;20180;-60
2023/12/23 04:09:47;;;;;;;5.63;1.83;;;10.50;99.90;;;;;;5115555;28;20185;-60
2023/12/23 04:12:13;;;;;;;4.85;2.03;;;10.60;99.90;;;;;;5115266;28;20602;-61
2023/12/23 04:14:40;;;;;;;8.70;2.17;;;10.60;99.90;;;;;;5115620;28;20180;-60
2023/12/23 04:17:06;;;;;;;5.53;2.20;;;10.50;99.90;;;;;;5114944;28;20544;-60
2023/12/23 04:19:32;;;;;;;10.68;2.65;;;10.50;99.90;;;;;;5115128;28;20216;-61
2023/12/23 04:21:58;;;;;;;7.97;2.33;;;10.50;99.90;;;;;;5114881;28;20225;-61
2023/12/23 04:24:26;;;;;;;8.00;2.08;;;10.50;99.90;;;;;;5114825;28;20230;-61
2023/12/23 04:26:52;;;;;;;5.63;2.00;;;10.70;99.90;;;;;;5115102;28;20173;-60
2023/12/23 04:29:18;;;;;;;4.20;1.83;;;10.60;99.90;;;;;;5114768;27;20200;-60
2023/12/23 04:31:43;;;;;;;7.55;1.92;;;10.60;99.90;;;;;;5114948;28;20217;-61
2023/12/23 04:34:10;;;;;;;7.65;2.08;;;10.60;99.90;;;;;;5114931;28;20169;-62
2023/12/23 04:36:36;;;;;;;8.52;2.20;;;10.60;99.90;;;;;;5114903;28;20185;-61
2023/12/23 04:39:05;;;;;;;5.88;2.35;;;10.50;99.90;;;;;;5114811;28;20542;-61
2023/12/23 04:41:34;;;;;;;8.38;2.22;;;10.50;99.90;;;;;;5114780;28;20675;-61
2023/12/23 04:44:01;;;;;;;4.18;2.05;;;10.60;99.90;;;;;;5114506;28;20170;-61
2023/12/23 04:46:27;;;;;;;5.70;2.05;;;10.60;99.90;;;;;;5114755;28;20289;-61
2023/12/23 04:48:52;;;;;;;6.97;2.08;;;10.60;99.90;;;;;;5114691;28;20219;-61
2023/12/23 04:51:18;;;;;;;9.90;2.05;;;10.60;99.90;;;;;;5114597;28;20216;-61
2023/12/23 04:53:44;;;;;;;7.43;2.42;;;10.50;99.90;;;;;;5114865;28;20185;-60
2023/12/23 04:56:09;;;;;;;6.75;2.20;;;10.50;99.90;;;;;;5114561;28;20173;-60
2023/12/23 04:58:35;;;;;;;9.63;2.33;;;10.50;99.90;;;;;;5114441;28;20208;-60
2023/12/23 05:01:01;;;;;;;7.13;2.10;;;10.60;99.90;;;;;;5114361;28;20545;-61
2023/12/23 05:03:31;;;;;;;6.18;2.53;;;10.50;99.90;;;;;;5114056;28;20170;-60
2023/12/23 05:05:57;;;;;;;8.95;2.80;;;10.60;99.90;;;;;;5114348;28;20643;-60
2023/12/23 05:08:22;;;;;;;7.95;2.50;;;10.60;99.90;;;;;;5114317;28;20173;-60
2023/12/23 05:10:48;;;;;;;7.93;2.40;;;10.50;99.90;;;;;;5114290;28;20265;-61
2023/12/23 05:13:14;;;;;;;11.30;2.58;;;10.50;99.90;;;;;;5114269;28;20181;-60
2023/12/23 05:15:41;;;;;;;10.00;2.17;;;10.50;99.90;;;;;;5114217;28;20169;-60
2023/12/23 05:18:06;;;;;;;7.55;2.50;;;10.60;99.90;;;;;;5113819;28;20618;-61
2023/12/23 05:20:32;;;;;;;8.18;2.25;;;10.70;99.90;;;;;;5114330;28;20196;-60
2023/12/23 05:22:57;;;;;;;6.90;2.53;;;10.60;99.90;;;;;;5114142;28;20690;-61
2023/12/23 05:25:23;;;;;;;8.05;2.63;;;10.50;99.90;;;;;;5113589;28;20178;-61
2023/12/23 05:27:49;;;;;;;6.10;2.40;;;10.70;99.90;;;;;;5114085;28;20166;-61
2023/12/23 05:30:15;;;;;;;6.63;2.50;;;10.60;99.90;;;;;;5114073;28;20211;-60
2023/12/23 05:32:41;;;;;;;9.95;2.70;;;10.40;99.90;;;;;;5114030;28;20177;-60
2023/12/23 05:35:07;;;;;;;9.70;2.00;;;10.60;99.90;;;;;;5114051;28;20181;-61
2023/12/23 05:37:33;;;;;;;8.32;2.40;;;10.70;99.90;;;;;;5113964;28;20255;-60
2023/12/23 05:39:59;;;;;;;8.48;2.35;;;10.70;99.90;;;;;;5113834;28;20220;-60
2023/12/23 05:42:25;;;;;;;7.22;2.13;;;10.80;99.90;;;;;;5114191;28;20640;-61
2023/12/23 05:44:51;;;;;;;8.00;2.50;;;10.70;99.90;;;;;;5113919;28;20170;-61
2023/12/23 05:47:17;;;;;;;8.75;2.28;;;10.60;99.90;;;;;;5113835;28;20302;-61
2023/12/23 05:49:42;;;;;;;8.40;2.85;;;10.70;99.90;;;;;;5113825;28;20184;-61
2023/12/23 05:52:08;;;;;;;8.70;2.25;;;10.80;99.90;;;;;;5113553;28;20173;-61
2023/12/23 05:54:33;;;;;;;9.73;2.60;;;10.60;99.90;;;;;;5113879;28;20169;-61
2023/12/23 05:56:59;;;;;;;9.68;2.92;;;10.60;99.90;;;;;;5113822;28;20175;-61
2023/12/23 05:59:25;;;;;;;6.05;2.47;;;10.70;99.90;;;;;;5113743;28;20253;-61
2023/12/23 06:01:52;;;;;;;8.07;2.97;;;10.80;99.90;;;;;;5112438;28;20276;-61
2023/12/23 06:04:17;;;;;;;10.32;2.97;;;10.80;99.90;;;;;;5113726;28;20188;-62
2023/12/23 06:06:43;;;;;;;8.18;2.53;;;10.80;99.90;;;;;;5113665;28;20637;-60
2023/12/23 06:09:09;;;;;;;10.38;2.55;;;10.90;99.90;;;;;;5113711;28;20226;-60
2023/12/23 06:11:35;;;;;;;9.13;2.28;;;10.70;99.90;;;;;;5113664;28;20226;-60
2023/12/23 06:14:00;;;;;;;9.35;2.58;;;10.80;99.90;;;;;;5113619;28;20599;-60
2023/12/23 06:16:26;;;;;;;10.13;2.65;;;10.90;99.90;;;;;;5113646;28;20184;-60
2023/12/23 06:18:52;;;;;;;8.95;2.83;;;10.80;99.90;;;;;;5113520;28;20554;-60
2023/12/23 06:21:18;;;;;;;8.80;2.80;;;10.70;99.90;;;;;;5113374;28;20177;-59
2023/12/23 06:23:43;;;;;;;9.10;3.08;;;10.80;99.90;;;;;;5113556;28;20271;-60
2023/12/23 06:26:12;;;;;;;11.00;2.90;;;10.60;99.90;;;;;;5113543;28;20530;-60
2023/12/23 06:28:37;;;;;;;10.10;3.00;;;10.60;99.90;;;;;;5113533;28;20182;-60
2023/12/23 06:31:03;;;;;;;8.15;2.53;;;10.70;99.90;;;;;;5113495;28;20178;-60
2023/12/23 06:33:29;;;;;;;10.00;3.17;;;10.70;99.90;;;;;;5113511;28;20165;-59
2023/12/23 06:35:54;;;;;;;9.93;2.65;;;10.70;99.90;;;;;;5113770;28;20533;-60
2023/12/23 06:38:20;;;;;;;7.35;2.60;;;10.70;99.90;;;;;;5117134;28;20208;-60
2023/12/23 06:40:46;;;;;;;10.82;2.92;;;10.70;99.90;;;;;;5116721;28;20261;-60
2023/12/23 06:43:11;;;;;;;8.88;2.90;;;10.60;99.90;;;;;;5116548;28;20197;-59
2023/12/23 06:45:37;;;;;;;10.95;2.97;;;10.60;99.90;;;;;;5116601;28;20511;-59
2023/12/23 06:48:03;;;;;;;10.30;2.60;;;10.50;99.90;;;;;;5116844;28;20537;-60
2023/12/23 06:50:29;;;;;;;9.85;2.33;;;10.60;99.90;;;;;;5113676;28;20166;-60
2023/12/23 06:52:55;;;;;;;14.07;2.83;;;10.60;99.90;;;;;;5116946;28;20626;-60
2023/12/23 06:55:20;;;;;;;7.00;1.88;;;10.60;99.90;;;;;;5117142;28;20173;-60
2023/12/23 06:57:46;;;;;;;6.82;2.67;;;10.70;99.90;;;;;;5116754;28;20201;-60
2023/12/23 07:00:12;;;;;;;9.95;3.08;;;10.70;99.90;;;;;;5116651;28;20638;-60
2023/12/23 07:02:39;;;;;;;7.60;2.53;;;10.70;99.90;;;;;;5115680;28;20196;-60
2023/12/23 07:05:07;;;;;;;8.52;2.55;;;10.80;99.90;;;;;;5109518;28;20193;-58
2023/12/23 07:07:32;;;;;;;6.93;2.53;;;10.60;99.90;;;;;;5115597;28;20200;-59
2023/12/23 07:09:59;;;;;;;6.75;2.45;;;10.70;99.90;;;;;;5116444;28;20617;-58
2023/12/23 07:12:25;;;;;;;8.75;2.50;;;10.60;99.90;;;;;;5115022;28;20173;-58
2023/12/23 07:14:51;;;;;;;9.75;2.35;;;10.70;99.90;;;;;;5115997;28;20181;-58
2023/12/23 07:17:17;;;;;;;8.52;2.70;;;10.60;99.90;;;;;;5114893;28;20177;-58
2023/12/23 07:19:42;;;;;;;9.75;2.72;;;10.60;99.90;;;;;;5115910;28;20200;-59
2023/12/23 07:22:08;;;;;;;9.02;2.53;;;10.70;99.90;;;;;;5115736;28;20279;-58
2023/12/23 07:24:33;;;;;;;10.35;2.92;;;10.80;99.90;;;;;;5116114;28;20580;-58
2023/12/23 07:27:02;;;;;;;8.27;2.72;;;10.80;99.90;;;;;;5115931;28;20171;-58
2023/12/23 07:29:28;;;;;;;7.35;2.45;;;10.70;99.90;;;;;;5115529;28;20519;-58
2023/12/23 07:31:53;;;;;;;9.35;2.60;;;10.60;99.90;;;;;;5115964;28;20223;-59
2023/12/23 07:34:19;;;;;;;9.15;2.60;;;10.60;99.90;;;;;;5114520;28;20294;-58
2023/12/23 07:36:45;;;;;;;7.85;2.22;;;10.70;99.90;;;;;;5115453;28;20602;-58
2023/12/23 07:39:10;;;;;;;10.32;2.58;;;10.70;99.90;;;;;;5115749;28;20554;-58
2023/12/23 07:41:36;;;;;;;12.20;2.78;;;10.70;99.90;;;;;;5115805;28;20176;-60
2023/12/23 07:44:02;;;;;;;8.45;2.70;;;10.60;99.90;;;;;;5115759;28;20177;-59
2023/12/23 07:46:27;;;;;;;9.27;2.55;;;10.60;99.90;;;;;;5115071;28;20614;-58
2023/12/23 07:48:53;;;;;;;9.55;2.45;;;10.70;99.90;;;;;;5111901;28;20177;-58
2023/12/23 07:51:19;;;;;;;8.02;2.38;;;10.70;99.90;;;;;;5113878;28;20218;-58
2023/12/23 07:53:45;;;;;;;8.75;2.53;;;10.70;99.90;;;;;;5115523;28;20654;-59
2023/12/23 07:56:11;;;;;;;9.50;2.55;;;10.60;99.90;;;;;;5113251;28;20174;-58
2023/12/23 07:58:36;;;;;;;8.15;2.10;;;10.50;99.90;;;;;;5114996;28;20201;-59
2023/12/23 08:01:02;;;;;;;9.70;2.65;;;10.60;99.90;;;;;;5113322;28;20565;-59
2023/12/23 08:03:28;;;;;;;5.35;1.90;;;10.60;99.90;;;;;;5113644;28;20238;-59
2023/12/23 08:05:54;;;;;;;6.65;2.20;;;10.60;99.90;;;;;;5114164;28;20177;-58
2023/12/23 08:08:19;;;;;;;7.15;2.20;;;10.60;99.90;;;;;;5112646;28;20173;-59
2023/12/23 08:10:45;;;;;;;6.60;2.58;;;10.60;99.90;;;;;;5114884;28;20173;-59
2023/12/23 08:13:11;;;;;;;7.40;2.28;;;10.60;99.90;;;;;;5115078;28;20165;-58
2023/12/23 08:15:36;;;;;;;8.23;2.58;;;10.70;99.90;;;;;;5114606;28;20173;-58
2023/12/23 08:18:02;;;;;;;6.03;1.95;;;10.60;99.90;;;;;;5114696;28;20661;-58
2023/12/23 08:20:28;;;;;;;5.22;2.03;;;10.60;99.90;;;;;;5114937;28;20181;-59
2023/12/23 08:22:53;;;;;;;8.55;2.60;;;10.70;99.90;;;;;;5114791;28;20608;-60
2023/12/23 08:25:19;;;;;;;5.68;2.30;;;10.80;99.90;;;;;;5114811;28;20252;-58
2023/12/23 08:27:45;;;;;;;8.65;2.28;;;10.80;99.90;;;;;;5114522;28;20203;-58
2023/12/23 08:30:11;;;;;;;7.63;2.00;;;10.80;99.90;;;;;;5114711;28;20537;-60
2023/12/23 08:32:37;;;;;;;4.28;1.95;;;10.70;99.90;;;;;;5112802;28;20230;-60
2023/12/23 08:35:02;;;;;;;7.18;2.17;;;10.80;99.90;;;;;;5114209;28;20173;-58
2023/12/23 08:37:28;;;;;;;4.00;1.70;;;10.90;99.90;;;;;;5113436;28;20181;-60
2023/12/23 08:39:54;;;;;;;10.65;2.10;;;11.00;99.90;;;;;;5113678;28;20257;-57
2023/12/23 08:42:20;;;;;;;7.07;2.08;;;11.00;99.90;;;;;;5114776;28;20180;-57
2023/12/23 08:44:47;;;;;;;7.40;2.38;;;10.90;99.90;;;;;;5114619;28;20527;-61
2023/12/23 08:47:13;;;;;;;6.18;2.28;;;11.10;99.90;;;;;;5114726;28;20177;-57
2023/12/23 08:49:39;;;;;;;7.13;2.47;;;11.10;99.90;;;;;;5114387;28;20169;-57
2023/12/23 08:52:06;;;;;;;5.63;1.92;;;11.20;99.90;;;;;;5114579;28;20618;-60
2023/12/23 08:54:31;;;;;;;7.80;2.30;;;11.30;99.90;;;;;;5114628;28;20238;-58
2023/12/23 08:56:57;;;;;;;7.93;1.80;;;11.30;99.90;;;;;;5114518;28;20169;-60
2023/12/23 08:59:23;;;;;;;7.22;2.17;;;11.30;99.90;;;;;;5113657;28;20550;-60
2023/12/23 09:01:48;;;;;;;8.20;2.80;;;11.30;99.90;;;;;;5114209;28;20173;-57
2023/12/23 09:04:14;;;;;;;6.10;1.98;;;11.30;99.90;;;;;;5114404;28;20665;-58
2023/12/23 09:06:40;;;;;;;6.00;2.17;;;11.30;99.90;;;;;;5114382;28;20177;-61
2023/12/23 09:09:06;;;;;;;7.65;2.60;;;11.30;99.90;;;;;;5114327;28;20188;-58
2023/12/23 09:11:32;;;;;;;6.85;2.47;;;11.30;99.90;;;;;;5114272;28;20177;-58
2023/12/23 09:13:58;;;;;;;9.98;2.40;;;11.40;99.90;;;;;;5114235;28;20177;-58
2023/12/23 09:16:23;;;;;;;10.20;2.40;;;11.20;99.90;;;;;;5114145;28;20297;-60
2023/12/23 09:18:49;;;;;;;7.07;2.22;;;11.20;99.90;;;;;;5114052;28;20247;-60
2023/12/23 09:21:15;;;;;;;7.57;2.50;;;11.20;99.90;;;;;;5114180;28;20176;-58
2023/12/23 09:23:40;;;;;;;6.43;2.30;;;11.30;99.90;;;;;;5113638;28;20221;-60
2023/12/23 09:26:06;;;;;;;7.72;2.15;;;11.20;99.90;;;;;;5113810;28;20185;-60
2023/12/23 09:28:32;;;;;;;4.70;2.05;;;11.30;99.90;;;;;;5114104;28;20182;-58
2023/12/23 09:30:57;;;;;;;5.70;2.60;;;11.30;99.90;;;;;;5113997;28;20275;-58
2023/12/23 09:33:23;;;;;;;9.73;2.30;;;11.40;99.90;;;;;;5114035;28;20177;-58
2023/12/23 09:35:48;;;;;;;9.10;2.00;;;11.40;99.90;;;;;;5114027;28;20238;-58
2023/12/23 09:38:14;;;;;;;8.13;2.38;;;11.40;99.90;;;;;;5113900;28;20579;-58
2023/12/23 09:40:40;;;;;;;8.18;2.40;;;11.40;99.90;;;;;;5114077;28;20177;-58
2023/12/23 09:43:06;;;;;;;8.02;2.33;;;11.30;99.90;;;;;;5113884;28;20266;-60
2023/12/23 09:45:36;;;;;;;7.90;2.60;;;11.50;99.90;;;;;;5113139;28;20585;-60
2023/12/23 09:48:03;;;;;;;6.57;1.90;;;11.60;99.90;;;;;;5113716;28;20169;-60
2023/12/23 09:50:28;;;;;;;7.97;1.92;;;11.40;99.90;;;;;;5113861;28;20552;-60
2023/12/23 09:52:58;;;;;;;5.38;2.15;;;11.50;99.90;;;;;;5112254;28;20222;-59
2023/12/23 09:55:25;;;;;;;7.47;2.20;;;11.60;99.90;;;;;;5112220;28;20169;-59
2023/12/23 09:57:50;;;;;;;9.27;2.28;;;11.80;99.90;;;;;;5113399;28;20166;-60
2023/12/23 10:00:16;;;;;;;6.40;2.20;;;11.80;99.90;;;;;;5113818;28;20208;-60
2023/12/23 10:02:42;;;;;;;7.70;2.53;;;11.90;99.90;;;;;;5113781;28;20169;-60
2023/12/23 10:05:08;;;;;;;6.97;2.03;;;11.90;99.90;;;;;;5113726;28;20177;-60
2023/12/23 10:07:34;;;;;;;6.00;2.20;;;12.10;99.90;;;;;;5110808;28;20200;-60
2023/12/23 10:09:59;;;;;;;7.90;3.08;;;12.20;99.90;;;;;;5113304;28;20223;-60
2023/12/23 10:12:25;;;;;;;5.85;1.98;;;12.20;99.90;;;;;;5117395;28;20241;-60
2023/12/23 10:14:51;;;;;;;6.75;2.45;;;12.10;99.90;;;;;;5117292;28;20639;-59
2023/12/23 10:17:17;;;;;;;7.40;2.20;;;12.10;99.90;;;;;;5117460;28;20253;-60
2023/12/23 10:19:43;;;;;;;8.52;2.50;;;12.10;99.90;;;;;;5117319;28;20232;-59
2023/12/23 10:22:09;;;;;;;4.70;2.10;;;12.10;99.90;;;;;;5117052;28;20260;-59
2023/12/23 10:24:37;;;;;;;6.80;2.53;;;12.20;99.90;;;;;;5117242;28;20567;-60
2023/12/23 10:27:04;;;;;;;6.57;2.10;;;12.20;99.90;;;;;;5117233;28;20280;-60
2023/12/23 10:29:33;;;;;;;10.23;2.72;;;12.10;99.90;;;;;;5117202;28;20177;-60
2023/12/23 10:32:04;;;;;;;10.23;2.42;;;12.10;99.90;;;;;;5117250;28;20194;-60
2023/12/23 10:34:44;;;;;;;7.30;1.85;;;12.20;99.90;;;;;;5116351;28;20211;-60
2023/12/23 10:37:11;;;;;;;4.57;2.03;;;12.30;99.90;;;;;;5116408;28;20165;-60
2023/12/23 10:39:54;;;;;;;5.97;2.40;;;12.20;99.90;;;;;;5117089;28;20201;-59
2023/12/23 10:42:22;;;;;;;6.80;2.30;;;12.20;99.90;;;;;;5117559;28;20577;-61
2023/12/23 10:44:49;;;;;;;4.75;1.98;;;12.20;99.90;;;;;;5117070;28;20223;-61
2023/12/23 10:47:15;;;;;;;6.53;2.42;;;12.20;99.90;;;;;;5116748;28;20649;-61
2023/12/23 10:49:43;;;;;;;8.13;2.03;;;12.20;99.90;;;;;;5117001;28;20212;-61
2023/12/23 10:52:11;;;;;;;5.07;1.95;;;12.20;99.90;;;;;;5117044;28;20177;-61
2023/12/23 10:54:37;;;;;;;7.18;2.20;;;12.10;99.90;;;;;;5116968;28;20176;-61
2023/12/23 10:57:04;;;;;;;6.60;2.13;;;12.10;99.90;;;;;;5116839;28;20177;-61
2023/12/23 10:59:29;;;;;;;6.97;2.22;;;12.10;99.90;;;;;;5116838;28;20283;-61
2023/12/23 11:01:56;;;;;;;6.93;2.47;;;12.10;99.90;;;;;;5116537;28;20672;-61
2023/12/23 11:04:25;;;;;;;9.43;2.50;;;12.10;99.90;;;;;;5116734;28;20181;-61
2023/12/23 11:06:55;;;;;;;7.45;1.98;;;12.30;99.90;;;;;;5116711;28;20201;-60
2023/12/23 11:09:23;;;;;;;6.18;2.17;;;12.40;99.90;;;;;;5116723;28;20157;-61
2023/12/23 11:11:49;;;;;;;6.63;1.92;;;12.20;99.90;;;;;;5116603;28;20177;-60
2023/12/23 11:14:15;;;;;;;6.90;2.20;;;12.30;99.90;;;;;;5116587;28;20311;-60
2023/12/23 11:16:43;;;;;;;7.50;2.20;;;12.30;99.90;;;;;;5116521;28;20621;-61
2023/12/23 11:19:08;;;;;;;6.45;2.30;;;12.30;99.90;;;;;;5116345;28;20258;-61
2023/12/23 11:21:35;;;;;;;6.25;1.95;;;12.40;99.90;;;;;;5115370;28;20166;-60
2023/12/23 11:24:01;;;;;;;7.07;2.42;;;12.40;99.90;;;;;;5116366;28;20157;-60
2023/12/23 11:26:40;;;;;;;8.95;2.42;;;12.30;99.90;;;;;;5116388;28;20161;-60
2023/12/23 11:29:14;;;;;;;5.72;2.05;;;12.40;99.90;;;;;;5116335;28;20165;-60
2023/12/23 11:31:41;;;;;;;6.00;2.13;;;12.40;99.90;;;;;;5116278;28;20161;-60
2023/12/23 11:34:15;;;;;;;7.15;2.50;;;12.50;99.90;;;;;;5116348;28;20268;-60
2023/12/23 11:36:45;;;;;;;6.18;1.85;;;12.60;99.90;;;;;;5116169;28;20552;-60
2023/12/23 11:39:12;;;;;;;6.50;2.50;;;12.60;99.90;;;;;;5116120;28;20197;-60
2023/12/23 11:41:41;;;;;;;6.90;2.35;;;12.60;99.90;;;;;;5115999;28;20192;-60
2023/12/23 11:44:08;;;;;;;6.97;2.15;;;12.60;99.90;;;;;;5116054;28;20165;-59
2023/12/23 11:46:36;;;;;;;7.32;2.03;;;12.80;99.90;;;;;;5116177;28;20227;-63
2023/12/23 11:49:02;;;;;;;3.55;1.90;;;12.70;99.90;;;;;;5115863;28;20173;-63
2023/12/23 11:51:28;;;;;;;5.75;2.28;;;12.80;99.90;;;;;;5115828;28;20185;-63
2023/12/23 11:53:54;;;;;;;5.50;2.00;;;12.80;99.90;;;;;;5115785;28;20165;-64
2023/12/23 11:56:20;;;;;;;4.05;1.60;;;12.80;99.90;;;;;;5115271;28;20637;-63
2023/12/23 11:58:46;;;;;;;6.93;2.22;;;12.70;99.90;;;;;;5115105;28;20284;-63
2023/12/23 12:01:12;;;;;;;5.72;2.33;;;12.70;99.90;;;;;;5115137;28;20649;-63
2023/12/23 12:03:38;;;;;;;4.78;1.83;;;12.70;99.90;;;;;;5115545;28;20177;-64
2023/12/23 12:06:03;;;;;;;6.35;2.20;;;12.70;99.90;;;;;;5115532;28;20188;-64
2023/12/23 12:08:29;;;;;;;5.30;2.15;;;12.60;99.90;;;;;;5115466;28;20176;-64
2023/12/23 12:10:58;;;;;;;6.75;2.15;;;12.50;99.90;;;;;;5114312;28;20180;-64
2023/12/23 12:13:36;;;;;;;5.00;2.03;;;12.50;99.90;;;;;;5115431;28;20161;-63
2023/12/23 12:16:02;;;;;;;6.05;2.22;;;12.60;99.90;;;;;;5114177;28;20168;-63
2023/12/23 12:18:28;;;;;;;5.68;1.83;;;12.50;99.90;;;;;;5114579;28;20209;-63
2023/12/23 12:20:54;;;;;;;4.57;1.80;;;12.60;99.90;;;;;;5113993;28;20177;-63
2023/12/23 12:23:20;;;;;;;6.20;2.38;;;12.60;99.90;;;;;;5114399;28;20221;-64
2023/12/23 12:25:56;;;;;;;9.35;2.35;;;12.40;99.90;;;;;;5114981;28;20173;-64
2023/12/23 12:28:23;;;;;;;5.63;2.15;;;12.30;99.90;;;;;;5114924;28;20161;-64
2023/12/23 12:30:48;;;;;;;4.38;2.00;;;12.30;99.90;;;;;;5114659;28;20190;-63
2023/12/23 12:33:17;;;;;;;6.60;2.38;;;12.10;99.90;;;;;;5114706;28;20165;-61
2023/12/23 12:35:43;;;;;;;6.55;2.28;;;12.00;99.90;;;;;;5114708;28;20173;-61
2023/12/23 12:38:09;;;;;;;5.28;2.00;;;12.20;99.90;;;;;;5114399;28;20272;-61
2023/12/23 12:40:35;;;;;;;5.97;1.95;;;12.20;99.90;;;;;;5114449;28;20177;-61